createdAt,value
2022-08-28T00:00:22.345Z,58.88
2022-08-28T00:01:09.778Z,59.02
2022-08-28T00:01:43.008Z,59.63
2022-08-28T00:02:16.264Z,59.89
2022-08-28T00:02:49.649Z,60.13
2022-08-28T00:03:22.959Z,60.37
2022-08-28T00:03:56.266Z,60.51
2022-08-28T00:04:29.530Z,60.72
2022-08-28T00:05:02.771Z,61.05
2022-08-28T00:05:36.399Z,61.25
2022-08-28T00:06:12.049Z,61.42
2022-08-28T00:06:46.026Z,61.49
2022-08-28T00:07:19.600Z,61.51
2022-08-28T00:07:52.865Z,61.56
2022-08-28T00:08:26.769Z,61.82
2022-08-28T00:08:59.901Z,61.99
2022-08-28T00:09:33.115Z,62.33
2022-08-28T00:10:08.277Z,62.32
2022-08-28T00:10:42.127Z,62.31
2022-08-28T00:11:15.354Z,62.63
2022-08-28T00:11:49.718Z,62.95
2022-08-28T00:12:23.051Z,62.86
2022-08-28T00:12:57.623Z,62.04
2022-08-28T00:13:31.851Z,61.13
2022-08-28T00:14:07.779Z,60.14
2022-08-28T00:14:40.950Z,58.96
2022-08-28T00:15:17.772Z,57.49
2022-08-28T00:15:56.096Z,56.82
2022-08-28T00:16:30.823Z,56.56
2022-08-28T00:17:04.210Z,56.54
2022-08-28T00:17:37.415Z,56.71
2022-08-28T00:18:10.680Z,57.07
2022-08-28T00:18:43.873Z,57.36
2022-08-28T00:19:21.475Z,57.74
2022-08-28T00:19:54.629Z,58.13
2022-08-28T00:20:30.186Z,58.50
2022-08-28T00:21:04.033Z,58.85
2022-08-28T00:21:37.920Z,59.15
2022-08-28T00:22:11.267Z,59.55
2022-08-28T00:22:45.248Z,59.89
2022-08-28T00:23:19.776Z,60.14
2022-08-28T00:23:53.862Z,60.42
2022-08-28T00:24:27.153Z,60.53
2022-08-28T00:25:00.386Z,60.72
2022-08-28T00:25:35.295Z,60.97
2022-08-28T00:26:08.634Z,61.25
2022-08-28T00:27:00.687Z,61.52
2022-08-28T00:27:52.815Z,61.45
2022-08-28T00:28:26.536Z,61.66
2022-08-28T00:29:00.224Z,62.16
2022-08-28T00:29:33.598Z,62.36
2022-08-28T00:30:07.602Z,62.59
2022-08-28T00:30:48.695Z,63.06
2022-08-28T00:31:24.197Z,63.41
2022-08-28T00:31:57.791Z,62.18
2022-08-28T00:32:30.936Z,61.13
2022-08-28T00:33:31.596Z,60.11
2022-08-28T00:34:04.976Z,60.08
2022-08-28T00:34:39.086Z,57.39
2022-08-28T00:35:12.895Z,56.77
2022-08-28T00:35:48.353Z,56.48
2022-08-28T00:36:21.452Z,56.53
2022-08-28T00:36:55.197Z,56.70
2022-08-28T00:37:28.654Z,56.92
2022-08-28T00:38:02.845Z,57.32
2022-08-28T00:38:36.197Z,57.74
2022-08-28T00:39:10.154Z,58.25
2022-08-28T00:39:43.589Z,58.85
2022-08-28T00:40:22.102Z,59.19
2022-08-28T00:41:04.846Z,59.48
2022-08-28T00:41:41.230Z,59.99
2022-08-28T00:42:14.622Z,60.34
2022-08-28T00:42:48.367Z,60.69
2022-08-28T00:43:24.836Z,61.00
2022-08-28T00:44:14.593Z,61.26
2022-08-28T00:44:48.913Z,61.31
2022-08-28T00:45:24.684Z,61.79
2022-08-28T00:45:57.940Z,61.98
2022-08-28T00:46:31.071Z,62.26
2022-08-28T00:47:04.397Z,62.59
2022-08-28T00:47:39.436Z,62.89
2022-08-28T00:48:12.780Z,63.09
2022-08-28T00:48:46.370Z,62.28
2022-08-28T00:49:24.179Z,61.07
2022-08-28T00:49:57.539Z,60.38
2022-08-28T00:50:53.745Z,58.68
2022-08-28T00:51:53.552Z,57.97
2022-08-28T00:52:28.050Z,56.90
2022-08-28T00:53:01.833Z,56.72
2022-08-28T00:53:35.038Z,56.89
2022-08-28T00:54:09.754Z,57.29
2022-08-28T00:54:59.638Z,57.67
2022-08-28T00:55:33.086Z,57.96
2022-08-28T00:56:13.213Z,58.56
2022-08-28T00:56:48.136Z,58.81
2022-08-28T00:58:00.916Z,59.31
2022-08-28T00:58:34.484Z,59.23
2022-08-28T00:59:15.263Z,60.21
2022-08-28T00:59:48.291Z,60.28
2022-08-28T01:00:32.193Z,60.16
2022-08-28T01:01:05.545Z,61.01
2022-08-28T01:01:39.433Z,61.47
2022-08-28T01:02:13.187Z,61.75
2022-08-28T01:02:46.753Z,61.91
2022-08-28T01:03:19.974Z,62.08
2022-08-28T01:03:58.539Z,62.19
2022-08-28T01:04:33.070Z,62.38
2022-08-28T01:05:09.826Z,62.59
2022-08-28T01:05:48.291Z,62.95
2022-08-28T01:06:22.287Z,62.83
2022-08-28T01:06:57.505Z,61.83
2022-08-28T01:07:32.084Z,60.97
2022-08-28T01:08:05.675Z,59.75
2022-08-28T01:08:43.000Z,58.70
2022-08-28T01:09:21.105Z,57.68
2022-08-28T01:09:56.123Z,57.04
2022-08-28T01:10:32.924Z,56.81
2022-08-28T01:11:08.383Z,57.10
2022-08-28T01:11:46.826Z,57.52
2022-08-28T01:12:24.720Z,57.99
2022-08-28T01:12:59.350Z,58.49
2022-08-28T01:13:33.294Z,59.03
2022-08-28T01:14:09.368Z,59.54
2022-08-28T01:14:46.175Z,59.77
2022-08-28T01:15:23.276Z,60.15
2022-08-28T01:15:58.377Z,60.53
2022-08-28T01:16:34.377Z,60.85
2022-08-28T01:17:09.938Z,60.90
2022-08-28T01:17:48.234Z,61.21
2022-08-28T01:18:22.503Z,61.45
2022-08-28T01:18:56.798Z,61.72
2022-08-28T01:19:41.516Z,62.15
2022-08-28T01:20:18.980Z,62.26
2022-08-28T01:21:02.540Z,62.62
2022-08-28T01:21:35.565Z,63.62
2022-08-28T01:22:08.656Z,62.86
2022-08-28T01:22:50.796Z,61.98
2022-08-28T01:23:53.703Z,61.65
2022-08-28T01:24:28.289Z,61.54
2022-08-28T01:25:03.778Z,58.45
2022-08-28T01:25:38.250Z,57.09
2022-08-28T01:26:11.856Z,56.25
2022-08-28T01:26:45.280Z,56.09
2022-08-28T01:27:19.093Z,56.16
2022-08-28T01:27:52.377Z,56.45
2022-08-28T01:28:25.604Z,56.77
2022-08-28T01:29:01.091Z,57.09
2022-08-28T01:29:34.831Z,57.53
2022-08-28T01:30:11.019Z,58.06
2022-08-28T01:30:46.950Z,58.56
2022-08-28T01:31:21.855Z,59.07
2022-08-28T01:31:55.568Z,59.56
2022-08-28T01:32:34.291Z,59.92
2022-08-28T01:33:08.010Z,60.22
2022-08-28T01:33:43.783Z,60.64
2022-08-28T01:34:16.987Z,61.10
2022-08-28T01:34:50.152Z,61.38
2022-08-28T01:35:27.551Z,61.65
2022-08-28T01:36:00.847Z,61.93
2022-08-28T01:36:34.316Z,62.20
2022-08-28T01:37:07.539Z,62.50
2022-08-28T01:37:41.631Z,62.92
2022-08-28T01:38:20.100Z,62.97
2022-08-28T01:38:59.889Z,62.59
2022-08-28T01:39:33.566Z,61.39
2022-08-28T01:40:09.693Z,59.98
2022-08-28T01:40:47.111Z,59.03
2022-08-28T01:41:21.095Z,57.81
2022-08-28T01:41:55.862Z,57.05
2022-08-28T01:42:29.177Z,56.96
2022-08-28T01:43:20.597Z,57.15
2022-08-28T01:43:54.554Z,57.17
2022-08-28T01:44:28.487Z,57.73
2022-08-28T01:45:01.604Z,58.25
2022-08-28T01:45:38.230Z,58.64
2022-08-28T01:46:12.675Z,58.97
2022-08-28T01:46:46.833Z,59.48
2022-08-28T01:47:22.221Z,59.83
2022-08-28T01:47:55.638Z,60.22
2022-08-28T01:48:30.867Z,60.57
2022-08-28T01:49:04.771Z,60.89
2022-08-28T01:49:38.013Z,61.29
2022-08-28T01:50:13.939Z,61.58
2022-08-28T01:50:47.159Z,61.74
2022-08-28T01:51:24.405Z,62.00
2022-08-28T01:51:58.935Z,62.09
2022-08-28T01:52:32.251Z,62.32
2022-08-28T01:53:12.468Z,62.60
2022-08-28T01:53:46.630Z,63.27
2022-08-28T01:54:20.487Z,62.83
2022-08-28T01:54:54.284Z,62.27
2022-08-28T01:55:29.647Z,61.50
2022-08-28T01:56:08.174Z,60.29
2022-08-28T01:56:44.671Z,59.41
2022-08-28T01:57:17.988Z,57.94
2022-08-28T01:57:54.234Z,57.36
2022-08-28T01:58:29.209Z,57.20
2022-08-28T01:59:07.188Z,57.35
2022-08-28T01:59:40.855Z,57.58
2022-08-28T02:00:16.168Z,58.17
2022-08-28T02:00:49.379Z,58.63
2022-08-28T02:01:22.831Z,59.05
2022-08-28T02:01:56.557Z,59.51
2022-08-28T02:02:30.209Z,59.82
2022-08-28T02:03:04.166Z,60.02
2022-08-28T02:03:37.276Z,60.38
2022-08-28T02:04:11.865Z,60.76
2022-08-28T02:04:48.016Z,61.08
2022-08-28T02:05:23.199Z,61.33
2022-08-28T02:05:56.539Z,61.60
2022-08-28T02:06:29.725Z,61.88
2022-08-28T02:07:02.986Z,62.13
2022-08-28T02:07:36.637Z,62.37
2022-08-28T02:08:10.329Z,62.64
2022-08-28T02:08:44.494Z,63.00
2022-08-28T02:09:18.141Z,62.99
2022-08-28T02:09:51.974Z,62.21
2022-08-28T02:10:30.453Z,61.44
2022-08-28T02:11:08.973Z,60.55
2022-08-28T02:11:45.325Z,59.19
2022-08-28T02:12:20.892Z,57.73
2022-08-28T02:12:59.117Z,57.13
2022-08-28T02:13:32.897Z,57.01
2022-08-28T02:14:06.804Z,57.13
2022-08-28T02:14:40.049Z,57.42
2022-08-28T02:15:13.523Z,57.78
2022-08-28T02:15:47.496Z,58.04
2022-08-28T02:16:21.053Z,58.48
2022-08-28T02:16:54.198Z,58.84
2022-08-28T02:17:27.306Z,59.19
2022-08-28T02:18:01.203Z,59.58
2022-08-28T02:18:34.671Z,59.91
2022-08-28T02:19:07.976Z,60.27
2022-08-28T02:19:41.120Z,60.60
2022-08-28T02:20:14.492Z,60.82
2022-08-28T02:20:47.849Z,61.13
2022-08-28T02:21:21.716Z,61.26
2022-08-28T02:21:56.467Z,61.44
2022-08-28T02:22:33.580Z,61.83
2022-08-28T02:23:06.796Z,61.99
2022-08-28T02:23:43.115Z,62.29
2022-08-28T02:24:17.386Z,62.41
2022-08-28T02:24:50.587Z,62.78
2022-08-28T02:25:24.456Z,63.15
2022-08-28T02:25:57.777Z,62.87
2022-08-28T02:26:32.477Z,62.13
2022-08-28T02:27:10.303Z,61.44
2022-08-28T02:27:44.479Z,59.86
2022-08-28T02:28:17.650Z,58.81
2022-08-28T02:28:51.086Z,57.70
2022-08-28T02:29:26.264Z,57.15
2022-08-28T02:29:59.438Z,57.05
2022-08-28T02:30:38.647Z,57.07
2022-08-28T02:31:12.015Z,57.31
2022-08-28T02:31:45.178Z,57.80
2022-08-28T02:32:19.551Z,58.15
2022-08-28T02:32:52.762Z,58.65
2022-08-28T02:33:25.891Z,59.17
2022-08-28T02:33:59.048Z,59.64
2022-08-28T02:34:33.965Z,60.11
2022-08-28T02:35:12.189Z,60.58
2022-08-28T02:35:45.458Z,60.95
2022-08-28T02:36:18.865Z,61.32
2022-08-28T02:36:53.772Z,61.42
2022-08-28T02:37:26.939Z,61.66
2022-08-28T02:38:01.782Z,61.81
2022-08-28T02:38:35.735Z,61.88
2022-08-28T02:39:09.152Z,62.14
2022-08-28T02:39:42.325Z,62.37
2022-08-28T02:40:18.395Z,62.62
2022-08-28T02:40:53.086Z,63.09
2022-08-28T02:41:26.642Z,62.92
2022-08-28T02:41:59.967Z,62.08
2022-08-28T02:42:33.147Z,61.19
2022-08-28T02:43:06.477Z,60.16
2022-08-28T02:43:41.243Z,58.96
2022-08-28T02:44:14.390Z,57.70
2022-08-28T02:44:47.562Z,56.89
2022-08-28T02:45:21.217Z,56.73
2022-08-28T02:45:55.529Z,56.71
2022-08-28T02:46:30.165Z,56.97
2022-08-28T02:47:04.578Z,57.29
2022-08-28T02:47:42.698Z,57.81
2022-08-28T02:48:17.068Z,58.24
2022-08-28T02:48:50.676Z,58.73
2022-08-28T02:49:24.263Z,59.02
2022-08-28T02:49:57.426Z,59.49
2022-08-28T02:50:32.295Z,59.91
2022-08-28T02:51:09.439Z,60.19
2022-08-28T02:51:42.643Z,60.52
2022-08-28T02:52:16.253Z,60.97
2022-08-28T02:52:49.451Z,61.34
2022-08-28T02:53:22.919Z,61.47
2022-08-28T02:53:56.568Z,61.83
2022-08-28T02:54:29.728Z,62.04
2022-08-28T02:55:03.902Z,62.24
2022-08-28T02:55:37.532Z,62.42
2022-08-28T02:56:12.057Z,62.75
2022-08-28T02:56:45.936Z,63.12
2022-08-28T02:57:19.048Z,62.78
2022-08-28T02:57:54.823Z,61.99
2022-08-28T02:58:28.203Z,61.30
2022-08-28T02:59:01.455Z,60.27
2022-08-28T02:59:38.456Z,59.15
2022-08-28T03:00:14.920Z,58.14
2022-08-28T03:00:48.367Z,57.37
2022-08-28T03:01:22.174Z,57.23
2022-08-28T03:01:56.035Z,57.37
2022-08-28T03:02:29.287Z,57.71
2022-08-28T03:03:03.149Z,58.18
2022-08-28T03:03:36.661Z,58.71
2022-08-28T03:04:11.485Z,59.24
2022-08-28T03:04:44.885Z,59.68
2022-08-28T03:05:21.479Z,59.98
2022-08-28T03:05:56.237Z,60.29
2022-08-28T03:06:30.327Z,60.67
2022-08-28T03:07:06.510Z,60.94
2022-08-28T03:07:39.697Z,61.22
2022-08-28T03:08:13.238Z,61.53
2022-08-28T03:08:46.768Z,61.77
2022-08-28T03:09:19.943Z,62.03
2022-08-28T03:09:53.087Z,62.38
2022-08-28T03:10:26.309Z,62.71
2022-08-28T03:11:00.419Z,63.11
2022-08-28T03:11:34.174Z,62.85
2022-08-28T03:12:08.744Z,62.53
2022-08-28T03:12:42.271Z,61.81
2022-08-28T03:13:26.685Z,60.90
2022-08-28T03:14:03.702Z,60.69
2022-08-28T03:14:37.818Z,59.10
2022-08-28T03:15:11.749Z,58.03
2022-08-28T03:15:46.706Z,57.59
2022-08-28T03:16:25.809Z,57.60
2022-08-28T03:16:58.976Z,57.72
2022-08-28T03:17:32.537Z,58.08
2022-08-28T03:18:10.836Z,58.50
2022-08-28T03:18:44.767Z,58.95
2022-08-28T03:19:17.886Z,59.51
2022-08-28T03:19:52.054Z,59.87
2022-08-28T03:20:25.184Z,60.30
2022-08-28T03:20:58.396Z,60.63
2022-08-28T03:21:31.679Z,60.96
2022-08-28T03:22:04.778Z,61.23
2022-08-28T03:22:57.014Z,61.54
2022-08-28T03:23:30.494Z,61.52
2022-08-28T03:24:04.317Z,62.19
2022-08-28T03:24:38.000Z,62.48
2022-08-28T03:25:12.729Z,62.92
2022-08-28T03:25:45.863Z,63.04
2022-08-28T03:26:21.000Z,62.48
2022-08-28T03:26:54.351Z,61.82
2022-08-28T03:27:27.586Z,60.68
2022-08-28T03:28:00.835Z,59.66
2022-08-28T03:28:42.951Z,58.48
2022-08-28T03:29:16.749Z,57.52
2022-08-28T03:29:50.026Z,56.88
2022-08-28T03:30:24.049Z,56.79
2022-08-28T03:30:58.381Z,56.92
2022-08-28T03:31:33.981Z,57.24
2022-08-28T03:32:07.180Z,57.67
2022-08-28T03:32:40.485Z,58.14
2022-08-28T03:33:14.857Z,58.61
2022-08-28T03:33:48.608Z,59.12
2022-08-28T03:34:22.365Z,59.65
2022-08-28T03:34:55.693Z,60.14
2022-08-28T03:35:29.284Z,60.60
2022-08-28T03:36:04.788Z,61.03
2022-08-28T03:36:38.236Z,61.41
2022-08-28T03:37:11.385Z,61.89
2022-08-28T03:37:44.740Z,62.20
2022-08-28T03:38:18.971Z,62.54
2022-08-28T03:38:55.296Z,63.10
2022-08-28T03:39:28.407Z,63.25
2022-08-28T03:40:02.132Z,62.51
2022-08-28T03:40:39.823Z,61.57
2022-08-28T03:41:15.316Z,60.85
2022-08-28T03:41:48.497Z,59.68
2022-08-28T03:42:21.696Z,58.19
2022-08-28T03:42:55.685Z,57.11
2022-08-28T03:43:29.571Z,56.61
2022-08-28T03:44:03.709Z,56.46
2022-08-28T03:44:39.424Z,56.62
2022-08-28T03:45:12.701Z,57.05
2022-08-28T03:46:17.330Z,57.54
2022-08-28T03:46:51.794Z,57.65
2022-08-28T03:47:25.187Z,58.37
2022-08-28T03:47:58.504Z,58.81
2022-08-28T03:48:36.620Z,59.43
2022-08-28T03:49:09.775Z,59.82
2022-08-28T03:49:45.703Z,60.38
2022-08-28T03:50:19.093Z,60.56
2022-08-28T03:50:53.692Z,61.15
2022-08-28T03:51:33.362Z,61.41
2022-08-28T03:52:06.811Z,61.71
2022-08-28T03:52:41.680Z,62.18
2022-08-28T03:53:15.063Z,62.53
2022-08-28T03:53:48.503Z,63.03
2022-08-28T03:54:21.852Z,63.04
2022-08-28T03:54:55.129Z,62.50
2022-08-28T03:55:29.311Z,61.68
2022-08-28T03:56:02.735Z,60.73
2022-08-28T03:56:36.047Z,59.58
2022-08-28T03:57:09.332Z,58.51
2022-08-28T03:57:42.673Z,57.58
2022-08-28T03:58:19.064Z,57.14
2022-08-28T03:58:55.872Z,57.20
2022-08-28T03:59:31.770Z,57.41
2022-08-28T04:00:11.541Z,57.75
2022-08-28T04:00:46.284Z,58.35
2022-08-28T04:01:21.274Z,58.86
2022-08-28T04:01:55.423Z,59.29
2022-08-28T04:02:29.719Z,59.81
2022-08-28T04:03:03.126Z,60.20
2022-08-28T04:03:37.081Z,60.65
2022-08-28T04:04:10.416Z,61.18
2022-08-28T04:04:45.017Z,61.50
2022-08-28T04:05:18.446Z,61.93
2022-08-28T04:05:52.318Z,62.29
2022-08-28T04:06:26.257Z,62.79
2022-08-28T04:06:59.863Z,63.28
2022-08-28T04:07:33.082Z,63.16
2022-08-28T04:08:06.910Z,62.42
2022-08-28T04:08:40.637Z,61.51
2022-08-28T04:09:13.683Z,60.54
2022-08-28T04:09:47.721Z,59.51
2022-08-28T04:10:20.907Z,58.48
2022-08-28T04:10:55.192Z,57.54
2022-08-28T04:11:29.151Z,57.02
2022-08-28T04:12:02.516Z,57.07
2022-08-28T04:12:37.315Z,57.29
2022-08-28T04:13:11.341Z,57.68
2022-08-28T04:13:44.708Z,58.20
2022-08-28T04:14:17.962Z,58.71
2022-08-28T04:14:51.169Z,59.29
2022-08-28T04:15:24.291Z,59.78
2022-08-28T04:16:06.263Z,60.19
2022-08-28T04:16:40.072Z,60.40
2022-08-28T04:17:13.450Z,60.90
2022-08-28T04:17:46.595Z,61.10
2022-08-28T04:18:19.808Z,61.46
2022-08-28T04:18:52.848Z,61.82
2022-08-28T04:19:26.243Z,62.32
2022-08-28T04:19:59.331Z,62.84
2022-08-28T04:20:32.626Z,63.43
2022-08-28T04:21:12.393Z,63.26
2022-08-28T04:21:45.807Z,63.05
2022-08-28T04:22:19.004Z,61.52
2022-08-28T04:22:55.104Z,60.38
2022-08-28T04:23:29.767Z,59.55
2022-08-28T04:24:04.954Z,58.34
2022-08-28T04:24:41.734Z,57.88
2022-08-28T04:25:15.060Z,57.70
2022-08-28T04:25:48.462Z,58.04
2022-08-28T04:26:25.839Z,58.37
2022-08-28T04:26:59.073Z,58.86
2022-08-28T04:27:32.332Z,59.36
2022-08-28T04:28:05.749Z,59.77
2022-08-28T04:28:39.018Z,60.02
2022-08-28T04:29:12.540Z,60.47
2022-08-28T04:29:45.812Z,60.74
2022-08-28T04:30:19.079Z,61.38
2022-08-28T04:30:57.445Z,62.01
2022-08-28T04:31:31.772Z,62.48
2022-08-28T04:32:06.154Z,63.17
2022-08-28T04:32:40.520Z,63.22
2022-08-28T04:33:14.090Z,62.81
2022-08-28T04:33:47.281Z,61.79
2022-08-28T04:34:20.449Z,60.78
2022-08-28T04:34:54.228Z,59.93
2022-08-28T04:35:27.668Z,58.87
2022-08-28T04:36:19.709Z,57.71
2022-08-28T04:36:52.867Z,57.24
2022-08-28T04:37:27.840Z,57.24
2022-08-28T04:38:02.531Z,57.41
2022-08-28T04:38:43.728Z,57.82
2022-08-28T04:39:17.442Z,58.28
2022-08-28T04:39:50.703Z,58.93
2022-08-28T04:40:24.740Z,59.32
2022-08-28T04:40:58.935Z,59.74
2022-08-28T04:41:32.551Z,60.18
2022-08-28T04:42:05.805Z,60.62
2022-08-28T04:42:40.374Z,61.03
2022-08-28T04:43:13.835Z,61.36
2022-08-28T04:43:47.900Z,61.77
2022-08-28T04:44:21.412Z,62.24
2022-08-28T04:45:01.323Z,62.71
2022-08-28T04:45:45.825Z,63.50
2022-08-28T04:46:19.357Z,63.72
2022-08-28T04:46:53.629Z,62.21
2022-08-28T04:47:28.076Z,61.07
2022-08-28T04:48:05.502Z,59.82
2022-08-28T04:48:44.857Z,58.93
2022-08-28T04:49:18.234Z,57.37
2022-08-28T04:49:51.685Z,56.77
2022-08-28T04:50:25.681Z,56.57
2022-08-28T04:50:58.931Z,56.54
2022-08-28T04:51:32.776Z,56.73
2022-08-28T04:52:05.873Z,57.03
2022-08-28T04:52:40.003Z,57.49
2022-08-28T04:53:15.389Z,57.97
2022-08-28T04:53:49.099Z,58.44
2022-08-28T04:54:22.464Z,59.04
2022-08-28T04:54:56.122Z,59.63
2022-08-28T04:55:52.804Z,60.15
2022-08-28T04:56:22.936Z,60.29
2022-08-28T04:56:56.058Z,61.16
2022-08-28T04:57:31.268Z,61.61
2022-08-28T04:58:08.377Z,61.90
2022-08-28T04:58:44.474Z,62.28
2022-08-28T04:59:18.000Z,62.79
2022-08-28T04:59:51.302Z,63.35
2022-08-28T05:00:24.454Z,63.35
2022-08-28T05:00:57.741Z,62.68
2022-08-28T05:01:31.817Z,61.74
2022-08-28T05:02:06.135Z,60.61
2022-08-28T05:02:39.413Z,59.44
2022-08-28T05:03:13.237Z,58.14
2022-08-28T05:03:48.297Z,57.47
2022-08-28T05:04:21.538Z,57.29
2022-08-28T05:04:54.790Z,57.38
2022-08-28T05:05:28.572Z,57.69
2022-08-28T05:06:02.864Z,58.14
2022-08-28T05:06:36.058Z,58.59
2022-08-28T05:07:09.297Z,59.21
2022-08-28T05:07:42.562Z,59.85
2022-08-28T05:08:22.033Z,60.44
2022-08-28T05:08:57.751Z,61.01
2022-08-28T05:09:32.197Z,61.46
2022-08-28T05:10:06.082Z,61.85
2022-08-28T05:10:40.526Z,62.29
2022-08-28T05:11:33.393Z,62.85
2022-08-28T05:12:08.417Z,64.17
2022-08-28T05:12:41.911Z,63.05
2022-08-28T05:13:16.432Z,62.24
2022-08-28T05:13:51.257Z,61.18
2022-08-28T05:14:27.802Z,60.47
2022-08-28T05:15:00.943Z,59.16
2022-08-28T05:15:38.601Z,58.23
2022-08-28T05:16:12.934Z,57.97
2022-08-28T05:16:53.418Z,57.97
2022-08-28T05:17:26.831Z,58.05
2022-08-28T05:18:06.301Z,58.45
2022-08-28T05:18:40.284Z,59.08
2022-08-28T05:19:15.752Z,59.90
2022-08-28T05:19:48.865Z,60.61
2022-08-28T05:20:22.783Z,61.29
2022-08-28T05:20:55.996Z,61.93
2022-08-28T05:21:29.321Z,62.41
2022-08-28T05:22:02.583Z,62.94
2022-08-28T05:22:35.865Z,63.51
2022-08-28T05:23:11.997Z,63.42
2022-08-28T05:23:45.072Z,63.09
2022-08-28T05:24:18.634Z,62.13
2022-08-28T05:24:51.935Z,61.18
2022-08-28T05:25:25.280Z,60.17
2022-08-28T05:25:58.616Z,59.14
2022-08-28T05:26:33.437Z,58.17
2022-08-28T05:27:09.529Z,57.79
2022-08-28T05:27:42.800Z,57.76
2022-08-28T05:28:17.537Z,58.12
2022-08-28T05:28:50.863Z,58.53
2022-08-28T05:29:24.151Z,59.08
2022-08-28T05:30:01.911Z,59.70
2022-08-28T05:30:37.622Z,60.30
2022-08-28T05:31:17.706Z,61.01
2022-08-28T05:31:50.922Z,61.52
2022-08-28T05:32:24.581Z,62.18
2022-08-28T05:32:59.399Z,62.58
2022-08-28T05:33:32.811Z,62.84
2022-08-28T05:34:06.824Z,62.85
2022-08-28T05:34:40.415Z,62.19
2022-08-28T05:35:14.072Z,61.56
2022-08-28T05:35:48.001Z,60.72
2022-08-28T05:36:25.302Z,59.80
2022-08-28T05:37:06.977Z,59.19
2022-08-28T05:37:40.024Z,58.05
2022-08-28T05:38:17.332Z,57.76
2022-08-28T05:38:53.318Z,57.79
2022-08-28T05:39:27.914Z,58.02
2022-08-28T05:40:01.025Z,58.50
2022-08-28T05:40:35.049Z,58.98
2022-08-28T05:41:08.776Z,59.77
2022-08-28T05:41:44.078Z,60.75
2022-08-28T05:42:17.310Z,61.82
2022-08-28T05:42:51.418Z,62.36
2022-08-28T05:43:26.151Z,62.85
2022-08-28T05:44:01.462Z,63.39
2022-08-28T05:44:34.628Z,63.21
2022-08-28T05:45:08.934Z,62.78
2022-08-28T05:45:43.145Z,62.11
2022-08-28T05:46:17.502Z,61.27
2022-08-28T05:46:51.248Z,60.46
2022-08-28T05:47:24.512Z,59.66
2022-08-28T05:47:57.799Z,58.73
2022-08-28T05:48:34.874Z,58.08
2022-08-28T05:49:13.766Z,57.92
2022-08-28T05:49:47.184Z,58.15
2022-08-28T05:50:20.554Z,58.65
2022-08-28T05:50:54.321Z,59.38
2022-08-28T05:51:28.722Z,60.19
2022-08-28T05:52:02.026Z,61.08
2022-08-28T05:52:36.340Z,61.81
2022-08-28T05:53:09.622Z,62.50
2022-08-28T05:53:44.939Z,63.13
2022-08-28T05:54:18.230Z,63.22
2022-08-28T05:54:52.031Z,62.75
2022-08-28T05:55:25.386Z,62.48
2022-08-28T05:55:58.552Z,61.69
2022-08-28T05:56:38.852Z,60.88
2022-08-28T05:57:12.116Z,60.39
2022-08-28T05:57:45.375Z,59.09
2022-08-28T05:58:31.868Z,58.16
2022-08-28T05:59:06.701Z,57.72
2022-08-28T05:59:40.226Z,57.81
2022-08-28T06:00:14.665Z,58.18
2022-08-28T06:00:48.117Z,58.67
2022-08-28T06:01:28.892Z,59.37
2022-08-28T06:02:04.510Z,59.70
2022-08-28T06:02:37.859Z,60.24
2022-08-28T06:03:10.960Z,60.81
2022-08-28T06:03:51.735Z,61.25
2022-08-28T06:04:28.346Z,61.65
2022-08-28T06:05:02.373Z,62.45
2022-08-28T06:05:35.474Z,63.24
2022-08-28T06:06:10.267Z,63.44
2022-08-28T06:06:44.194Z,63.35
2022-08-28T06:07:17.330Z,62.58
2022-08-28T06:07:51.684Z,61.82
2022-08-28T06:08:24.857Z,61.16
2022-08-28T06:09:05.899Z,60.08
2022-08-28T06:09:39.862Z,59.40
2022-08-28T06:10:13.118Z,58.44
2022-08-28T06:10:47.831Z,58.19
2022-08-28T06:11:24.456Z,58.30
2022-08-28T06:12:01.722Z,58.74
2022-08-28T06:12:35.536Z,59.14
2022-08-28T06:13:09.166Z,59.86
2022-08-28T06:13:42.654Z,60.43
2022-08-28T06:14:21.098Z,61.03
2022-08-28T06:14:54.699Z,61.58
2022-08-28T06:15:29.366Z,62.08
2022-08-28T06:16:02.848Z,62.50
2022-08-28T06:16:38.205Z,63.06
2022-08-28T06:17:11.509Z,63.19
2022-08-28T06:17:44.724Z,62.89
2022-08-28T06:18:18.540Z,62.14
2022-08-28T06:18:51.813Z,61.24
2022-08-28T06:19:27.207Z,60.35
2022-08-28T06:20:00.342Z,59.73
2022-08-28T06:20:38.387Z,58.71
2022-08-28T06:21:11.610Z,58.01
2022-08-28T06:21:47.173Z,57.66
2022-08-28T06:22:20.888Z,57.66
2022-08-28T06:22:54.338Z,57.99
2022-08-28T06:23:27.550Z,58.70
2022-08-28T06:24:00.805Z,59.15
2022-08-28T06:24:34.797Z,59.70
2022-08-28T06:25:09.676Z,60.15
2022-08-28T06:25:47.391Z,60.53
2022-08-28T06:26:20.553Z,60.80
2022-08-28T06:26:54.628Z,61.63
2022-08-28T06:27:33.875Z,62.25
2022-08-28T06:28:07.941Z,63.02
2022-08-28T06:28:42.558Z,63.34
2022-08-28T06:29:21.144Z,63.14
2022-08-28T06:29:55.500Z,62.75
2022-08-28T06:30:28.767Z,61.59
2022-08-28T06:31:24.348Z,60.61
2022-08-28T06:32:01.759Z,60.27
2022-08-28T06:32:34.972Z,57.74
2022-08-28T06:33:08.214Z,57.06
2022-08-28T06:33:42.647Z,56.75
2022-08-28T06:34:15.841Z,56.60
2022-08-28T06:34:49.180Z,56.90
2022-08-28T06:35:22.409Z,57.41
2022-08-28T06:35:56.725Z,58.21
2022-08-28T06:36:32.749Z,58.73
2022-08-28T06:37:05.939Z,59.41
2022-08-28T06:37:39.224Z,59.74
2022-08-28T06:38:12.953Z,60.02
2022-08-28T06:38:47.072Z,60.57
2022-08-28T06:39:20.423Z,61.23
2022-08-28T06:39:53.744Z,61.78
2022-08-28T06:40:27.725Z,62.22
2022-08-28T06:41:01.184Z,62.72
2022-08-28T06:41:34.875Z,63.11
2022-08-28T06:42:08.330Z,62.90
2022-08-28T06:42:41.818Z,61.93
2022-08-28T06:43:16.808Z,61.21
2022-08-28T06:43:50.456Z,60.47
2022-08-28T06:44:24.076Z,59.99
2022-08-28T06:44:58.405Z,59.09
2022-08-28T06:45:32.200Z,58.48
2022-08-28T06:46:05.682Z,58.05
2022-08-28T06:46:39.397Z,57.66
2022-08-28T06:47:12.767Z,57.56
2022-08-28T06:47:48.369Z,57.79
2022-08-28T06:48:27.806Z,58.36
2022-08-28T06:49:05.283Z,59.83
2022-08-28T06:49:38.385Z,60.54
2022-08-28T06:50:11.925Z,60.84
2022-08-28T06:50:47.913Z,61.06
2022-08-28T06:51:23.170Z,61.46
2022-08-28T06:51:58.682Z,61.84
2022-08-28T06:52:31.915Z,62.12
2022-08-28T06:53:05.077Z,62.33
2022-08-28T06:53:40.517Z,62.77
2022-08-28T06:54:19.796Z,62.49
2022-08-28T06:54:56.063Z,62.39
2022-08-28T06:55:29.371Z,61.36
2022-08-28T06:56:11.524Z,60.67
2022-08-28T06:56:52.768Z,60.74
2022-08-28T06:57:26.575Z,59.36
2022-08-28T06:57:59.937Z,58.76
2022-08-28T06:58:34.195Z,58.45
2022-08-28T06:59:07.411Z,58.29
2022-08-28T06:59:40.768Z,58.50
2022-08-28T07:00:14.671Z,58.93
2022-08-28T07:00:50.875Z,59.74
2022-08-28T07:01:37.706Z,59.92
2022-08-28T07:02:11.226Z,60.56
2022-08-28T07:02:44.695Z,61.25
2022-08-28T07:03:18.005Z,61.43
2022-08-28T07:03:53.477Z,61.73
2022-08-28T07:04:27.939Z,62.27
2022-08-28T07:05:01.446Z,62.93
2022-08-28T07:05:34.944Z,63.50
2022-08-28T07:06:10.347Z,63.64
2022-08-28T07:06:53.846Z,63.05
2022-08-28T07:07:32.578Z,61.96
2022-08-28T07:08:06.079Z,60.21
2022-08-28T07:08:40.319Z,59.15
2022-08-28T07:09:13.676Z,59.04
2022-08-28T07:09:48.142Z,59.03
2022-08-28T07:10:21.445Z,59.02
2022-08-28T07:10:55.275Z,58.84
2022-08-28T07:11:31.801Z,58.68
2022-08-28T07:12:05.192Z,59.09
2022-08-28T07:12:40.433Z,59.23
2022-08-28T07:13:13.900Z,59.69
2022-08-28T07:13:47.543Z,60.22
2022-08-28T07:14:20.934Z,60.59
2022-08-28T07:14:54.132Z,61.08
2022-08-28T07:15:27.741Z,61.13
2022-08-28T07:16:01.251Z,61.25
2022-08-28T07:16:40.858Z,61.18
2022-08-28T07:17:14.023Z,60.53
2022-08-28T07:17:47.297Z,60.96
2022-08-28T07:18:20.624Z,61.46
2022-08-28T07:18:53.860Z,61.64
2022-08-28T07:19:27.100Z,61.75
2022-08-28T07:20:00.323Z,62.11
2022-08-28T07:20:33.459Z,61.97
2022-08-28T07:21:11.633Z,61.54
2022-08-28T07:21:48.307Z,61.26
2022-08-28T07:22:22.266Z,61.39
2022-08-28T07:22:59.502Z,61.10
2022-08-28T07:23:35.586Z,61.42
2022-08-28T07:24:11.482Z,61.80
2022-08-28T07:24:44.840Z,62.34
2022-08-28T07:25:18.317Z,62.29
2022-08-28T07:25:51.923Z,62.25
2022-08-28T07:26:28.124Z,61.82
2022-08-28T07:27:03.489Z,61.74
2022-08-28T07:27:36.602Z,61.21
2022-08-28T07:28:09.848Z,61.29
2022-08-28T07:28:43.748Z,61.26
2022-08-28T07:29:19.939Z,61.61
2022-08-28T07:29:53.515Z,61.74
2022-08-28T07:30:26.825Z,60.86
2022-08-28T07:31:04.988Z,60.37
2022-08-28T07:31:44.781Z,60.61
2022-08-28T07:32:19.805Z,61.17